Time;durP1;ratioP1;P1;durP2;ratioP2;P2;SDS_P1;SDS_P2;PMS_P1;PMS_P2;Temp;Humidity;BMP_temperature;BMP_pressure;BME280_temperature;BME280_humidity;BME280_pressure;Samples;Min_cycle;Max_cycle;Signal;HPM_P1;HPM_P2
2023/08/07 00:02:16;;;;;;;2.42;1.00;;;;;;;;;;5117387;27;20409;-81
2023/08/07 00:04:42;;;;;;;1.88;0.75;;;;;;;;;;5116214;27;20136;-80
2023/08/07 00:07:08;;;;;;;1.63;0.90;;;;;;;;;;5111145;27;20395;-80
2023/08/07 00:09:34;;;;;;;0.70;0.70;;;;;;;;;;5098397;27;20024;-80
2023/08/07 00:12:00;;;;;;;4.55;0.80;;;;;;;;;;5108905;27;20120;-81
2023/08/07 00:14:26;;;;;;;0.50;0.50;;;;;;;;;;5129682;27;20296;-81
2023/08/07 00:16:52;;;;;;;2.83;0.80;;;;;;;;;;5117553;27;20119;-80
2023/08/07 00:19:18;;;;;;;0.63;0.50;;;;;;;;;;5091454;28;20028;-80
2023/08/07 00:21:44;;;;;;;0.95;0.90;;;;;;;;;;5105086;27;20402;-81
2023/08/07 00:24:10;;;;;;;1.30;0.73;;;;;;;;;;5125127;27;20118;-80
2023/08/07 00:26:36;;;;;;;1.23;0.60;;;;;;;;;;5122171;27;20090;-83
2023/08/07 00:29:02;;;;;;;1.30;1.17;;;;;;;;;;5089888;28;20044;-80
2023/08/07 00:31:31;;;;;;;0.70;0.60;;;;;;;;;;5103273;27;20054;-80
2023/08/07 00:33:57;;;;;;;1.15;0.60;;;;;;;;;;5104139;27;20065;-79
2023/08/07 00:36:23;;;;;;;0.82;0.57;;;;;;;;;;5128086;27;20043;-79
2023/08/07 00:38:50;;;;;;;0.88;0.80;;;14.40;74.20;;;;;;5123283;27;20027;-80
2023/08/07 00:41:18;;;;;;;1.38;0.70;;;14.50;74.70;;;;;;5109546;28;20431;-80
2023/08/07 00:43:44;;;;;;;0.40;0.40;;;;;;;;;;5089429;28;20061;-80
2023/08/07 00:46:11;;;;;;;0.55;0.55;;;;;;;;;;5109725;28;20023;-80
2023/08/07 00:48:37;;;;;;;0.47;0.40;;;;;;;;;;5109866;28;20027;-81
2023/08/07 00:51:04;;;;;;;1.08;0.73;;;;;;;;;;5116540;27;20019;-80
2023/08/07 00:53:30;;;;;;;6.13;0.93;;;;;;;;;;5113226;27;20493;-80
2023/08/07 00:55:58;;;;;;;0.85;0.70;;;;;;;;;;5109942;28;20032;-80
2023/08/07 00:58:24;;;;;;;1.17;0.32;;;;;;;;;;5109668;28;20108;-79
2023/08/07 01:00:50;;;;;;;0.80;0.60;;;;;;;;;;5104787;28;20043;-80
2023/08/07 01:03:16;;;;;;;1.20;0.57;;;;;;;;;;5101646;28;20024;-80
2023/08/07 01:05:42;;;;;;;3.22;0.57;;;;;;;;;;5108781;28;20034;-80
2023/08/07 01:08:08;;;;;;;0.73;0.45;;;;;;;;;;5089788;28;20023;-81
2023/08/07 01:11:20;;;;;;;0.50;0.40;;;14.50;83.90;;;;;;5089701;28;20128;-81
2023/08/07 01:14:08;;;;;;;2.25;0.60;;;14.30;91.40;;;;;;5021270;28;20071;-80
2023/08/07 01:16:48;;;;;;;2.28;0.80;;;14.30;83.80;;;;;;5018591;28;20470;-81
2023/08/07 01:19:27;;;;;;;0.65;0.55;;;14.20;85.70;;;;;;5014190;28;20029;-80
2023/08/07 01:22:10;;;;;;;2.25;0.60;;;14.40;95.80;;;;;;5008305;28;20087;-80
2023/08/07 01:24:37;;;;;;;0.60;0.60;;;14.10;85.60;;;;;;5026212;28;20041;-80
2023/08/07 01:27:17;;;;;;;1.38;0.50;;;14.00;96.50;;;;;;5025716;28;20026;-80
2023/08/07 01:30:13;;;;;;;3.13;0.63;;;14.20;87.30;;;;;;5026211;28;20053;-81
2023/08/07 01:33:00;;;;;;;0.68;0.60;;;13.80;96.50;;;;;;5026306;28;20033;-80
2023/08/07 01:35:30;;;;;;;0.30;0.30;;;13.70;91.10;;;;;;5026262;28;20075;-80
2023/08/07 01:37:57;;;;;;;3.40;0.95;;;13.50;92.00;;;;;;5025787;28;20034;-80
2023/08/07 01:40:23;;;;;;;;;;;13.50;93.80;;;;;;5025794;28;20033;-80
2023/08/07 01:42:49;;;;;;;0.70;0.50;;;;;;;;;;5023905;28;19962;-80
2023/08/07 01:45:23;;;;;;;0.65;0.65;;;13.20;92.50;;;;;;5027033;28;20041;-80
2023/08/07 01:47:49;;;;;;;0.50;0.50;;;;;;;;;;5060840;28;20171;-80
2023/08/07 01:50:15;;;;;;;0.93;0.60;;;;;;;;;;5108907;28;20512;-80
2023/08/07 01:52:41;;;;;;;2.70;0.60;;;;;;;;;;5107315;28;20105;-80
2023/08/07 01:55:07;;;;;;;2.67;0.68;;;12.50;99.90;;;;;;5108415;28;20054;-80
2023/08/07 01:57:33;;;;;;;0.50;0.50;;;;;;;;;;5108209;28;20020;-80
2023/08/07 01:59:59;;;;;;;1.17;0.70;;;;;;;;;;5115683;27;20042;-80
2023/08/07 02:02:25;;;;;;;1.23;0.60;;;;;;;;;;5108222;28;20035;-80
2023/08/07 02:04:51;;;;;;;0.52;0.50;;;;;;;;;;5108962;28;20732;-80
2023/08/07 02:07:17;;;;;;;2.10;0.95;;;;;;;;;;5108502;28;20032;-80
2023/08/07 02:09:43;;;;;;;0.60;0.60;;;;;;;;;;5108708;28;20081;-80
2023/08/07 02:12:09;;;;;;;0.63;0.63;;;;;;;;;;5090028;28;20558;-81
2023/08/07 02:14:35;;;;;;;0.70;0.70;;;;;;;;;;5108828;28;20055;-80
2023/08/07 02:17:01;;;;;;;1.00;0.73;;;;;;;;;;5108094;28;20074;-80
2023/08/07 02:19:27;;;;;;;2.88;0.50;;;;;;;;;;5104313;28;20031;-80
2023/08/07 02:21:53;;;;;;;0.93;0.50;;;;;;;;;;5103372;28;20367;-80
2023/08/07 02:24:20;;;;;;;0.57;0.57;;;;;;;;;;5108296;28;20036;-80
2023/08/07 02:26:46;;;;;;;0.80;0.60;;;;;;;;;;5108187;28;20129;-80
2023/08/07 02:29:12;;;;;;;0.85;0.85;;;;;;;;;;5108512;28;20035;-80
2023/08/07 02:31:37;;;;;;;1.00;0.65;;;;;;;;;;5108484;28;20023;-80
2023/08/07 02:34:04;;;;;;;2.13;0.77;;;;;;;;;;5108423;28;20051;-79
2023/08/07 02:36:29;;;;;;;2.55;0.77;;;;;;;;;;5107965;28;20020;-80
2023/08/07 02:38:55;;;;;;;0.80;0.70;;;;;;;;;;5107890;28;20024;-80
2023/08/07 02:41:21;;;;;;;2.30;0.95;;;;;;;;;;5107153;28;20148;-80
2023/08/07 02:43:47;;;;;;;0.80;0.60;;;;;;;;;;5119654;28;20126;-80
2023/08/07 02:46:13;;;;;;;1.45;0.80;;;;;;;;;;5107871;28;20509;-80
2023/08/07 02:48:40;;;;;;;1.45;1.30;;;;;;;;;;5108559;28;20055;-80
2023/08/07 02:51:06;;;;;;;1.25;0.93;;;;;;;;;;5107654;28;20020;-80
2023/08/07 02:53:32;;;;;;;0.75;0.65;;;;;;;;;;5108129;28;20644;-80
2023/08/07 02:55:58;;;;;;;1.00;0.60;;;;;;;;;;5108041;28;20019;-80
2023/08/07 02:58:24;;;;;;;1.42;0.60;;;;;;;;;;5108039;28;20028;-80
2023/08/07 03:00:50;;;;;;;0.95;0.65;;;;;;;;;;5107864;28;20027;-80
2023/08/07 03:03:16;;;;;;;2.70;0.73;;;;;;;;;;5107953;28;20036;-80
2023/08/07 03:05:51;;;;;;;2.60;0.77;;;13.20;94.70;;;;;;5110452;28;20031;-80
2023/08/07 03:08:17;;;;;;;0.90;0.68;;;;;;;;;;5111893;28;20051;-80
2023/08/07 03:10:55;;;;;;;0.57;0.55;;;13.20;95.10;;;;;;5111546;28;20529;-80
2023/08/07 03:13:21;;;;;;;0.98;0.75;;;;;;;;;;5111621;28;20062;-80
2023/08/07 03:15:49;;;;;;;2.45;0.60;;;;;;;;;;5111105;28;20489;-80
2023/08/07 03:18:15;;;;;;;0.95;0.70;;;;;;;;;;5111730;28;20509;-80
2023/08/07 03:20:43;;;;;;;5.05;1.48;;;;;;;;;;5111380;28;20238;-80
2023/08/07 03:23:09;;;;;;;0.52;0.52;;;;;;;;;;5111341;28;20081;-80
2023/08/07 03:25:35;;;;;;;1.45;0.77;;;;;;;;;;5111197;28;20031;-80
2023/08/07 03:28:01;;;;;;;0.47;0.47;;;;;;;;;;5111614;28;20023;-80
2023/08/07 03:30:27;;;;;;;0.77;0.60;;;;;;;;;;5110710;28;20054;-80
2023/08/07 03:32:53;;;;;;;4.60;0.77;;;;;;;;;;5111359;28;20131;-80
2023/08/07 03:35:19;;;;;;;0.65;0.60;;;;;;;;;;5107789;28;20107;-80
2023/08/07 03:37:45;;;;;;;1.20;1.00;;;;;;;;;;5099593;28;20035;-80
2023/08/07 03:40:11;;;;;;;1.27;0.60;;;;;;;;;;5110781;28;20031;-80
2023/08/07 03:42:37;;;;;;;1.25;1.25;;;;;;;;;;5121018;27;20027;-80
2023/08/07 03:45:03;;;;;;;1.20;0.70;;;12.90;99.90;;;;;;5111577;27;20381;-80
2023/08/07 03:47:29;;;;;;;1.52;0.65;;;;;;;;;;5110997;27;20036;-80
2023/08/07 03:49:55;;;;;;;1.77;0.95;;;;;;;;;;5111114;27;20119;-80
2023/08/07 03:52:21;;;;;;;1.02;0.68;;;;;;;;;;5115168;27;20028;-79
2023/08/07 03:54:47;;;;;;;0.85;0.65;;;;;;;;;;5111590;28;20427;-80
2023/08/07 03:57:13;;;;;;;0.98;0.63;;;;;;;;;;5110505;28;20023;-80
2023/08/07 03:59:39;;;;;;;0.70;0.70;;;;;;;;;;5092645;28;20088;-79
2023/08/07 04:02:05;;;;;;;4.95;0.80;;;;;;;;;;5110670;28;20358;-80
2023/08/07 04:04:31;;;;;;;1.02;0.93;;;;;;;;;;5110730;28;20923;-79
2023/08/07 04:06:57;;;;;;;2.50;1.30;;;;;;;;;;5110430;28;20024;-80
2023/08/07 04:09:23;;;;;;;4.88;0.77;;;;;;;;;;5110467;28;20024;-80
2023/08/07 04:11:49;;;;;;;1.00;0.85;;;;;;;;;;5110816;28;20409;-80
2023/08/07 04:14:15;;;;;;;0.70;0.60;;;;;;;;;;5110201;28;20098;-81
2023/08/07 04:16:41;;;;;;;0.93;0.80;;;;;;;;;;5109805;28;20027;-80
2023/08/07 04:19:07;;;;;;;0.70;0.70;;;;;;;;;;5110439;28;20026;-80
2023/08/07 04:21:33;;;;;;;4.30;0.90;;;;;;;;;;5109604;28;20366;-79
2023/08/07 04:24:10;;;;;;;1.38;0.63;;;;;;;;;;5110402;28;20069;-80
2023/08/07 04:26:36;;;;;;;1.13;0.70;;;;;;;;;;5109420;28;20058;-79
2023/08/07 04:29:02;;;;;;;0.60;0.60;;;11.90;99.90;;;;;;5110554;28;20039;-80
2023/08/07 04:31:29;;;;;;;0.98;0.70;;;;;;;;;;5110434;28;20049;-80
2023/08/07 04:33:55;;;;;;;0.80;0.80;;;;;;;;;;5110376;28;20927;-80
2023/08/07 04:36:21;;;;;;;1.52;0.70;;;;;;;;;;5109696;28;20026;-80
2023/08/07 04:38:47;;;;;;;1.52;0.80;;;;;;;;;;5102630;28;20031;-80
2023/08/07 04:41:13;;;;;;;3.63;0.65;;;;;;;;;;5104306;28;20027;-80
2023/08/07 04:43:39;;;;;;;4.38;0.98;;;;;;;;;;5121615;27;20112;-80
2023/08/07 04:46:05;;;;;;;2.35;0.98;;;;;;;;;;5109526;28;20420;-81
2023/08/07 04:48:31;;;;;;;2.03;0.80;;;;;;;;;;5109193;28;20036;-80
2023/08/07 04:50:58;;;;;;;1.40;0.88;;;;;;;;;;5109033;28;20076;-79
2023/08/07 04:53:24;;;;;;;4.03;0.53;;;;;;;;;;5110107;28;20062;-80
2023/08/07 04:55:50;;;;;;;1.33;0.82;;;;;;;;;;5109174;28;20055;-79
2023/08/07 04:58:16;;;;;;;3.42;1.90;;;;;;;;;;5109835;28;20019;-80
2023/08/07 05:00:42;;;;;;;1.08;0.90;;;;;;;;;;5109852;28;20027;-80
2023/08/07 05:03:08;;;;;;;3.78;0.60;;;;;;;;;;5109074;28;20028;-80
2023/08/07 05:05:34;;;;;;;3.15;0.88;;;;;;;;;;5109195;28;20443;-80
2023/08/07 05:08:00;;;;;;;1.20;0.70;;;;;;;;;;5109968;28;20076;-80
2023/08/07 05:10:26;;;;;;;0.70;0.70;;;;;;;;;;5109354;28;20047;-79
2023/08/07 05:12:55;;;;;;;0.73;0.63;;;;;;;;;;5109515;28;20020;-80
2023/08/07 05:15:22;;;;;;;1.02;0.70;;;12.00;99.90;;;;;;5109223;28;20553;-80
2023/08/07 05:17:48;;;;;;;1.02;0.93;;;;;;;;;;5109380;28;20038;-80
2023/08/07 05:20:14;;;;;;;0.93;0.77;;;;;;;;;;5108854;28;20127;-80
2023/08/07 05:22:40;;;;;;;2.95;0.80;;;;;;;;;;5108899;28;20497;-79
2023/08/07 05:25:06;;;;;;;1.55;0.68;;;;;;;;;;5106647;28;20031;-78
2023/08/07 05:27:32;;;;;;;5.78;0.70;;;;;;;;;;5106930;28;20154;-77
2023/08/07 05:29:59;;;;;;;0.60;0.60;;;12.00;99.10;;;;;;5107512;28;20099;-77
2023/08/07 05:32:25;;;;;;;1.40;0.88;;;;;;;;;;5107417;28;20028;-78
2023/08/07 05:34:51;;;;;;;1.48;1.05;;;;;;;;;;5106626;28;20022;-78
2023/08/07 05:37:17;;;;;;;0.60;0.60;;;;;;;;;;5107613;28;20489;-77
2023/08/07 05:39:43;;;;;;;1.67;0.85;;;;;;;;;;5106321;28;20027;-77
2023/08/07 05:42:10;;;;;;;1.08;0.60;;;;;;;;;;5101499;28;20457;-78
2023/08/07 05:44:36;;;;;;;1.60;0.80;;;;;;;;;;5103009;28;20459;-78
2023/08/07 05:47:02;;;;;;;0.50;0.50;;;;;;;;;;5103973;28;20054;-78
2023/08/07 05:49:28;;;;;;;1.42;0.75;;;;;;;;;;5102048;27;20468;-78
2023/08/07 05:51:54;;;;;;;0.85;0.70;;;;;;;;;;5107387;28;20127;-78
2023/08/07 05:54:20;;;;;;;2.90;0.70;;;;;;;;;;5107738;28;20031;-78
2023/08/07 05:56:46;;;;;;;1.13;0.60;;;12.60;99.90;;;;;;5107613;28;20015;-78
2023/08/07 05:59:12;;;;;;;1.60;0.73;;;;;;;;;;5112666;27;20051;-78
2023/08/07 06:01:38;;;;;;;0.75;0.70;;;;;;;;;;5107084;28;20486;-78
2023/08/07 06:04:04;;;;;;;3.38;1.08;;;;;;;;;;5094305;28;20091;-78
2023/08/07 06:06:34;;;;;;;1.00;0.77;;;;;;;;;;5103624;28;20047;-78
2023/08/07 06:09:00;;;;;;;1.38;0.82;;;;;;;;;;5107509;28;20031;-78
2023/08/07 06:11:26;;;;;;;2.10;0.65;;;;;;;;;;5104536;28;20019;-80
2023/08/07 06:13:52;;;;;;;1.17;0.73;;;;;;;;;;5098820;28;20035;-78
2023/08/07 06:16:18;;;;;;;0.80;0.70;;;;;;;;;;5104305;28;20547;-80
2023/08/07 06:18:44;;;;;;;0.73;0.60;;;;;;;;;;5107742;28;20059;-92
2023/08/07 06:21:10;;;;;;;1.10;0.82;;;;;;;;;;5087415;28;20024;-78
2023/08/07 06:23:37;;;;;;;4.15;0.80;;;14.60;93.60;;;;;;5087608;28;20409;-83
2023/08/07 06:26:04;;;;;;;0.68;0.60;;;;;;;;;;5092950;28;20020;-83
2023/08/07 06:28:32;;;;;;;2.17;0.88;;;15.10;92.20;;;;;;5103770;28;20263;-79
2023/08/07 06:31:08;;;;;;;1.90;1.10;;;15.40;92.60;;;;;;5084314;28;20059;-80
2023/08/07 06:33:34;;;;;;;0.70;0.70;;;;;;;;;;5077038;28;20024;-78
2023/08/07 06:36:00;;;;;;;1.08;0.88;;;15.70;88.90;;;;;;5074249;28;20032;-79
2023/08/07 06:38:27;;;;;;;1.27;0.88;;;;;;;;;;5096556;28;20032;-79
2023/08/07 06:40:53;;;;;;;1.20;0.70;;;;;;;;;;5097892;28;20021;-80
2023/08/07 06:43:19;;;;;;;2.10;1.05;;;;;;;;;;5093621;28;20032;-79
2023/08/07 06:45:50;;;;;;;1.05;0.80;;;17.10;84.10;;;;;;5104690;28;20028;-78
2023/08/07 06:48:16;;;;;;;0.60;0.60;;;;;;;;;;5110352;28;20023;-79
2023/08/07 06:50:42;;;;;;;2.15;1.00;;;;;;;;;;5111243;28;20050;-79
2023/08/07 06:53:08;;;;;;;2.03;0.85;;;;;;;;;;5111183;28;20019;-80
2023/08/07 06:55:34;;;;;;;1.52;0.80;;;;;;;;;;5110660;28;20035;-79
2023/08/07 06:58:00;;;;;;;1.92;0.70;;;;;;;;;;5092764;28;20019;-79
2023/08/07 07:00:26;;;;;;;4.95;0.60;;;;;;;;;;5111406;28;20114;-78
2023/08/07 07:02:52;;;;;;;0.90;0.50;;;;;;;;;;5108319;28;20028;-79
2023/08/07 07:05:19;;;;;;;1.30;0.73;;;;;;;;;;5101135;28;20111;-80
2023/08/07 07:07:45;;;;;;;0.75;0.30;;;;;;;;;;5110513;28;20062;-79
2023/08/07 07:10:11;;;;;;;0.90;0.40;;;;;;;;;;5111283;28;20035;-78
2023/08/07 07:12:36;;;;;;;0.85;0.30;;;27.80;58.30;;;;;;5111406;28;20393;-83
2023/08/07 07:15:03;;;;;;;0.28;0.28;;;;;;;;;;5111096;28;20024;-82
2023/08/07 07:17:29;;;;;;;2.13;1.17;;;;;;;;;;5110714;28;20102;-82
2023/08/07 07:19:56;;;;;;;0.80;0.40;;;;;;;;;;5103800;28;20032;-82
2023/08/07 07:22:22;;;;;;;0.50;0.40;;;;;;;;;;5097434;27;20119;-79
2023/08/07 07:24:48;;;;;;;0.50;0.40;;;;;;;;;;5099658;28;20131;-78
2023/08/07 07:27:14;;;;;;;0.70;0.43;;;;;;;;;;5092759;28;20628;-79
2023/08/07 07:29:40;;;;;;;2.75;0.52;;;27.30;62.80;;;;;;5103798;28;20163;-78
2023/08/07 07:32:06;;;;;;;0.32;0.20;;;27.60;44.30;;;;;;5110414;28;20028;-85
2023/08/07 07:34:33;;;;;;;0.40;0.23;;;;;;;;;;5110048;28;20032;-80
2023/08/07 07:36:58;;;;;;;1.67;0.30;;;24.90;61.30;;;;;;5110848;28;20042;-80
2023/08/07 07:39:24;;;;;;;3.40;0.45;;;;;;;;;;5110520;27;20568;-80
2023/08/07 07:41:50;;;;;;;7.93;0.45;;;;;;;;;;5089896;28;20158;-79
2023/08/07 07:44:16;;;;;;;1.38;0.40;;;;;;;;;;5109057;28;20055;-80
2023/08/07 07:46:42;;;;;;;0.63;0.32;;;31.90;49.90;;;;;;5109802;28;20027;-80
2023/08/07 07:49:08;;;;;;;1.50;0.20;;;;;;;;;;5110382;28;20023;-80
2023/08/07 07:51:35;;;;;;;0.77;0.40;;;;;;;;;;5109170;28;20019;-79
2023/08/07 07:54:01;;;;;;;;;;;34.70;38.00;;;;;;5109167;28;20040;-81
2023/08/07 07:56:27;;;;;;;2.90;0.63;;;;;;;;;;5085768;28;20301;-78
2023/08/07 07:58:53;;;;;;;4.55;0.75;;;;;;;;;;5100496;28;20544;-83
2023/08/07 08:01:18;;;;;;;0.35;0.20;;;35.80;43.00;;;;;;5091440;28;20020;-82
2023/08/07 08:03:44;;;;;;;0.70;0.30;;;;;;;;;;5109807;28;20502;-80
2023/08/07 08:06:13;;;;;;;0.90;0.30;;;34.30;47.10;;;;;;5110109;28;20019;-80
2023/08/07 08:08:39;;;;;;;0.77;0.38;;;;;;;;;;5109847;28;20036;-80
2023/08/07 08:11:05;;;;;;;1.17;0.43;;;;;;;;;;5109872;28;20020;-80
2023/08/07 08:13:31;;;;;;;0.63;0.40;;;;;;;;;;5106444;28;20085;-79
2023/08/07 08:15:58;;;;;;;1.77;0.30;;;;;;;;;;5099215;28;20031;-82
2023/08/07 08:18:24;;;;;;;0.85;0.40;;;;;;;;;;5104150;28;20343;-79
2023/08/07 08:20:50;;;;;;;5.18;0.47;;;;;;;;;;5109176;28;20047;-79
2023/08/07 08:23:16;;;;;;;1.65;0.40;;;;;;;;;;5104627;28;20425;-80
2023/08/07 08:25:42;;;;;;;0.70;0.52;;;;;;;;;;5103865;27;20023;-79
2023/08/07 08:28:08;;;;;;;3.67;0.45;;;;;;;;;;5102846;28;20024;-79
2023/08/07 08:30:34;;;;;;;0.77;0.68;;;;;;;;;;5100829;28;20048;-79
2023/08/07 08:33:00;;;;;;;2.50;1.47;;;;;;;;;;5107387;28;20033;-80
2023/08/07 08:35:26;;;;;;;1.97;0.30;;;;;;;;;;5109701;28;20034;-80
2023/08/07 08:37:52;;;;;;;1.63;0.30;;;;;;;;;;5108731;28;20070;-78
2023/08/07 08:40:19;;;;;;;1.07;0.33;;;;;;;;;;5109235;28;20099;-77
2023/08/07 08:42:45;;;;;;;;;;;35.80;34.80;;;;;;5120339;27;20023;-77
2023/08/07 08:45:12;;;;;;;0.90;0.40;;;41.10;29.20;;;;;;5109027;28;19915;-78
2023/08/07 08:47:39;;;;;;;0.50;0.30;;;40.90;31.00;;;;;;5109167;28;20045;-78
2023/08/07 08:50:05;;;;;;;0.68;0.20;;;;;;;;;;5109842;28;20351;-78
2023/08/07 08:52:32;;;;;;;0.43;0.20;;;34.80;32.00;;;;;;5108395;28;20019;-77
2023/08/07 08:54:58;;;;;;;0.52;0.22;;;35.70;44.10;;;;;;5109151;28;20029;-77
2023/08/07 08:57:29;;;;;;;0.40;0.17;;;36.20;29.20;;;;;;5108544;28;20030;-78
2023/08/07 08:59:56;;;;;;;0.68;0.20;;;34.80;30.10;;;;;;5101794;28;20036;-79
2023/08/07 09:02:22;;;;;;;0.20;0.20;;;;;;;;;;5103004;28;20031;-78
2023/08/07 09:04:48;;;;;;;0.30;0.20;;;;;;;;;;5108894;28;20096;-79
2023/08/07 09:07:16;;;;;;;3.05;0.20;;;43.90;25.50;;;;;;5108313;28;20023;-79
2023/08/07 09:09:44;;;;;;;0.20;0.20;;;44.80;26.20;;;;;;5108404;28;20035;-78
2023/08/07 09:12:19;;;;;;;0.50;0.10;;;48.70;24.60;;;;;;5107335;28;20073;-79
2023/08/07 09:14:47;;;;;;;1.70;0.40;;;52.00;29.00;;;;;;5108757;28;20046;-80
2023/08/07 09:17:15;;;;;;;0.55;0.40;;;54.30;25.80;;;;;;5108270;28;20023;-79
2023/08/07 09:19:41;;;;;;;0.35;0.10;;;;;;;;;;5107986;28;20088;-81
2023/08/07 09:22:07;;;;;;;0.30;0.10;;;;;;;;;;5108371;28;20020;-81
2023/08/07 09:24:34;;;;;;;0.77;0.30;;;;;;;;;;5108261;28;20069;-81
2023/08/07 09:27:00;;;;;;;0.50;0.20;;;47.40;27.80;;;;;;5107748;28;20024;-80
2023/08/07 09:29:27;;;;;;;0.73;0.17;;;44.40;23.50;;;;;;5089765;28;20138;-80
2023/08/07 09:31:54;;;;;;;0.40;0.30;;;43.20;24.90;;;;;;5108112;28;20026;-80
2023/08/07 09:34:20;;;;;;;2.53;0.38;;;;;;;;;;5108494;28;20028;-81
2023/08/07 09:36:46;;;;;;;1.08;0.20;;;45.10;29.60;;;;;;5107453;28;20023;-81
2023/08/07 09:39:11;;;;;;;;;;;46.40;23.40;;;;;;5101847;28;20578;-80
2023/08/07 09:41:38;;;;;;;0.57;0.10;;;;;;;;;;5109286;27;19919;-79
2023/08/07 09:44:10;;;;;;;;;;;43.00;23.70;;;;;;5111164;28;20028;-85
2023/08/07 09:46:45;;;;;;;0.85;0.32;;;47.90;28.40;;;;;;5102555;28;19908;-83
2023/08/07 09:49:11;;;;;;;0.93;0.30;;;;;;;;;;5116444;27;20030;-81
2023/08/07 09:51:45;;;;;;;0.20;0.20;;;54.90;20.90;;;;;;5107299;28;20028;-80
2023/08/07 09:54:11;;;;;;;0.60;0.20;;;56.40;20.30;;;;;;5104174;28;20028;-79
2023/08/07 09:56:40;;;;;;;0.40;0.30;;;57.20;20.10;;;;;;5100202;28;20020;-80
2023/08/07 09:59:07;;;;;;;0.25;0.20;;;51.50;20.00;;;;;;5107099;28;20027;-79
2023/08/07 10:01:33;;;;;;;0.25;0.10;;;;;;;;;;5099717;28;20382;-79
2023/08/07 10:03:59;;;;;;;0.50;0.20;;;;;;;;;;5093332;28;20046;-79
2023/08/07 10:06:25;;;;;;;;;;;38.70;22.60;;;;;;5114388;27;20020;-88
2023/08/07 10:08:51;;;;;;;1.20;0.08;;;32.40;37.30;;;;;;5097158;28;19911;-88
2023/08/07 10:11:17;;;;;;;;;;;31.40;26.90;;;;;;5103966;28;20024;-88
2023/08/07 10:13:43;;;;;;;1.88;0.20;;;;;;;;;;5094247;28;19905;-89
2023/08/07 10:16:10;;;;;;;1.67;0.63;;;;;;;;;;5109235;28;20034;-89
2023/08/07 10:18:36;;;;;;;0.63;0.20;;;;;;;;;;5109285;28;20053;-88
2023/08/07 10:21:03;;;;;;;;;;;41.90;23.90;;;;;;5106994;28;20482;-91
2023/08/07 10:23:31;;;;;;;0.40;0.30;;;50.00;21.30;;;;;;5112909;28;19938;-89
2023/08/07 10:25:57;;;;;;;1.27;0.30;;;;;;;;;;5104054;28;20046;-88
2023/08/07 10:28:24;;;;;;;0.28;0.10;;;51.40;20.00;;;;;;5101624;28;20046;-92
2023/08/07 10:30:50;;;;;;;0.10;0.00;;;45.90;20.60;;;;;;5107311;28;20071;-89
2023/08/07 10:33:18;;;;;;;0.77;0.20;;;40.50;30.30;;;;;;5110813;27;20032;-90
2023/08/07 10:35:50;;;;;;;0.77;0.25;;;36.40;25.00;;;;;;5113825;27;20015;-88
2023/08/07 10:38:19;;;;;;;0.73;0.13;;;33.40;25.40;;;;;;5107275;28;20019;-88
2023/08/07 10:41:08;;;;;;;2.33;0.32;;;31.30;35.10;;;;;;5114605;27;20024;-88
2023/08/07 10:43:41;;;;;;;2.47;0.30;;;29.40;40.80;;;;;;5123763;27;20494;-89
2023/08/07 10:46:20;;;;;;;0.40;0.10;;;28.80;28.80;;;;;;5114265;27;20027;-88
2023/08/07 10:48:47;;;;;;;0.50;0.30;;;36.60;36.30;;;;;;5099734;28;20032;-87
2023/08/07 10:51:14;;;;;;;0.82;0.28;;;41.60;30.40;;;;;;5110543;27;20087;-88
2023/08/07 10:53:48;;;;;;;0.32;0.15;;;43.10;28.60;;;;;;5101324;28;20015;-90
2023/08/07 10:56:40;;;;;;;1.83;0.13;;;45.70;22.10;;;;;;5109732;28;20561;-89
2023/08/07 10:59:10;;;;;;;0.20;0.10;;;43.10;24.80;;;;;;5095619;28;20028;-89
2023/08/07 11:01:38;;;;;;;0.30;0.17;;;38.50;22.90;;;;;;5102725;28;20115;-89
2023/08/07 11:04:09;;;;;;;1.20;0.20;;;34.80;24.70;;;;;;5109679;28;20032;-88
2023/08/07 11:06:36;;;;;;;0.10;0.00;;;37.40;24.80;;;;;;5104388;28;20499;-86
2023/08/07 11:09:05;;;;;;;0.20;0.10;;;38.90;24.40;;;;;;5089186;28;20447;-87
2023/08/07 11:11:41;;;;;;;0.47;0.00;;;38.60;29.10;;;;;;5094553;28;20028;-87
2023/08/07 11:14:10;;;;;;;;;;;42.10;23.80;;;;;;5110495;28;20023;-88
2023/08/07 11:16:37;;;;;;;0.22;0.13;;;46.40;27.60;;;;;;5110332;28;19908;-89
2023/08/07 11:19:04;;;;;;;0.38;0.00;;;49.00;26.50;;;;;;5107996;28;20099;-89
2023/08/07 11:21:31;;;;;;;0.45;0.10;;;49.60;20.60;;;;;;5106450;28;20043;-87
2023/08/07 11:23:57;;;;;;;0.63;0.00;;;49.20;26.60;;;;;;5099989;28;20027;-89
2023/08/07 11:26:24;;;;;;;;;;;48.60;19.70;;;;;;5107472;28;20035;-87
2023/08/07 11:28:51;;;;;;;2.47;0.32;;;;;;;;;;5096199;28;19969;-89
2023/08/07 11:31:17;;;;;;;0.40;0.10;;;39.10;22.40;;;;;;5108164;28;20047;-89
2023/08/07 11:33:43;;;;;;;0.10;0.10;;;;;;;;;;5105806;28;20028;-88
2023/08/07 11:36:14;;;;;;;0.25;0.10;;;36.90;23.80;;;;;;5104666;28;20077;-87
2023/08/07 11:38:43;;;;;;;0.70;0.32;;;35.00;24.10;;;;;;5091856;28;20047;-87
2023/08/07 11:41:10;;;;;;;1.25;0.17;;;;;;;;;;5108707;28;20016;-87
2023/08/07 11:43:36;;;;;;;1.63;0.30;;;;;;;;;;5122374;27;20512;-89
2023/08/07 11:46:07;;;;;;;0.98;0.10;;;30.30;26.70;;;;;;5113298;27;20408;-88
2023/08/07 11:48:35;;;;;;;2.28;0.10;;;30.50;27.00;;;;;;5111264;28;20547;-89
2023/08/07 11:51:01;;;;;;;1.67;0.20;;;;;;;;;;5109638;28;20031;-80
2023/08/07 11:53:30;;;;;;;2.97;0.47;;;28.20;28.10;;;;;;5110368;28;20031;-84
2023/08/07 11:55:56;;;;;;;1.00;0.20;;;31.30;26.80;;;;;;5107163;28;20024;-83
2023/08/07 11:58:25;;;;;;;0.25;0.17;;;32.70;25.40;;;;;;5100495;28;20047;-82
2023/08/07 12:00:51;;;;;;;0.25;0.25;;;;;;;;;;5099498;28;20204;-82
2023/08/07 12:03:27;;;;;;;0.83;0.30;;;29.50;26.60;;;;;;5109914;28;20032;-82
2023/08/07 12:05:58;;;;;;;1.10;0.30;;;28.10;27.70;;;;;;5104388;28;20015;-82
2023/08/07 12:08:30;;;;;;;0.40;0.20;;;27.20;35.00;;;;;;5101675;28;20505;-84
2023/08/07 12:10:56;;;;;;;0.32;0.32;;;28.60;41.30;;;;;;5086585;28;20031;-83
2023/08/07 12:13:26;;;;;;;0.52;0.25;;;30.70;27.00;;;;;;5106668;28;20031;-84
2023/08/07 12:15:54;;;;;;;0.55;0.30;;;30.30;27.30;;;;;;5110063;28;20031;-80
2023/08/07 12:18:20;;;;;;;0.47;0.35;;;29.10;27.70;;;;;;5109645;28;20043;-83
2023/08/07 12:20:46;;;;;;;0.40;0.30;;;28.20;42.30;;;;;;5109052;28;20615;-84
2023/08/07 12:23:16;;;;;;;2.20;0.28;;;28.10;28.60;;;;;;5109847;27;20031;-80
2023/08/07 12:25:42;;;;;;;2.83;0.25;;;;;;;;;;5109389;28;20031;-81
2023/08/07 12:28:08;;;;;;;0.52;0.32;;;29.60;37.90;;;;;;5109368;28;20019;-81
2023/08/07 12:30:37;;;;;;;1.48;0.60;;;30.60;41.30;;;;;;5109558;28;20059;-81
2023/08/07 12:33:04;;;;;;;0.30;0.30;;;31.40;28.00;;;;;;5109431;28;20034;-81
2023/08/07 12:35:34;;;;;;;0.43;0.38;;;31.40;27.80;;;;;;5109599;28;20035;-80
2023/08/07 12:38:01;;;;;;;0.55;0.30;;;31.30;40.40;;;;;;5108381;28;20524;-80
2023/08/07 12:40:27;;;;;;;0.93;0.35;;;30.20;41.80;;;;;;5109452;28;20077;-80
2023/08/07 12:42:53;;;;;;;0.85;0.20;;;;;;;;;;5119565;27;20059;-79
2023/08/07 12:45:19;;;;;;;0.33;0.13;;;;;;;;;;5109341;28;20035;-79
2023/08/07 12:47:46;;;;;;;0.43;0.20;;;;;;;;;;5094885;28;20035;-80
2023/08/07 12:50:12;;;;;;;0.52;0.30;;;;;;;;;;5090106;28;20665;-80
2023/08/07 12:52:38;;;;;;;0.35;0.20;;;;;;;;;;5108494;28;20038;-79
2023/08/07 12:55:05;;;;;;;0.43;0.40;;;;;;;;;;5108775;28;20561;-82
2023/08/07 12:57:31;;;;;;;2.28;0.30;;;29.40;42.40;;;;;;5108226;28;20375;-77
2023/08/07 12:59:57;;;;;;;0.20;0.20;;;;;;;;;;5109229;28;20038;-78
2023/08/07 13:02:22;;;;;;;0.63;0.22;;;28.70;39.60;;;;;;5108292;28;20110;-79
2023/08/07 13:04:48;;;;;;;1.35;0.22;;;;;;;;;;5108963;28;20084;-80
2023/08/07 13:07:14;;;;;;;0.52;0.52;;;;;;;;;;5108560;28;20053;-80
2023/08/07 13:09:40;;;;;;;0.90;0.55;;;;;;;;;;5108266;28;20114;-79
2023/08/07 13:12:07;;;;;;;2.22;0.50;;;;;;;;;;5108526;28;20520;-80
2023/08/07 13:14:33;;;;;;;1.60;0.30;;;;;;;;;;5108502;28;20115;-79
2023/08/07 13:16:58;;;;;;;0.20;0.20;;;27.50;43.90;;;;;;5108994;28;20344;-79
2023/08/07 13:19:24;;;;;;;0.70;0.40;;;;;;;;;;5104827;28;20050;-80
2023/08/07 13:21:50;;;;;;;0.40;0.40;;;26.20;45.50;;;;;;5107931;28;20580;-80
2023/08/07 13:24:16;;;;;;;0.30;0.30;;;;;;;;;;5109248;28;20028;-80
2023/08/07 13:26:45;;;;;;;0.52;0.30;;;;;;;;;;5108070;28;20099;-80
2023/08/07 13:29:11;;;;;;;0.50;0.30;;;25.50;31.60;;;;;;5108819;28;20553;-80
2023/08/07 13:31:37;;;;;;;0.82;0.40;;;;;;;;;;5089490;28;20124;-80
2023/08/07 13:34:07;;;;;;;0.73;0.73;;;;;;;;;;5108465;28;20103;-81
2023/08/07 13:36:36;;;;;;;1.55;0.52;;;25.60;31.60;;;;;;5108451;28;20048;-79
2023/08/07 13:39:01;;;;;;;;;;;25.80;32.10;;;;;;5109038;28;20051;-80
2023/08/07 13:41:28;;;;;;;0.30;0.20;;;;;;;;;;5108190;27;19997;-81
2023/08/07 13:43:54;;;;;;;0.90;0.60;;;;;;;;;;5111732;27;20032;-80
2023/08/07 13:46:20;;;;;;;2.05;0.95;;;;;;;;;;5108422;28;20043;-81
2023/08/07 13:48:46;;;;;;;0.70;0.55;;;;;;;;;;5101346;28;20478;-80
2023/08/07 13:51:12;;;;;;;0.63;0.45;;;;;;;;;;5106412;28;20084;-80
2023/08/07 13:53:38;;;;;;;0.70;0.52;;;;;;;;;;5111404;27;20019;-80
2023/08/07 13:56:04;;;;;;;0.52;0.20;;;;;;;;;;5107969;28;20086;-79
2023/08/07 13:58:30;;;;;;;0.50;0.40;;;;;;;;;;5089884;28;20448;-80
2023/08/07 14:00:57;;;;;;;0.93;0.40;;;;;;;;;;5089337;28;20089;-79
2023/08/07 14:03:23;;;;;;;3.60;0.30;;;;;;;;;;5080710;28;20028;-79